Time;durP1;ratioP1;P1;durP2;ratioP2;P2;SDS_P1;SDS_P2;PMS_P1;PMS_P2;Temp;Humidity;BMP_temperature;BMP_pressure;BME280_temperature;BME280_humidity;BME280_pressure;Samples;Min_cycle;Max_cycle;Signal;HPM_P1;HPM_P2
2023/02/07 00:01:21;;;;;;;96.00;37.70;;;;;;;-8.61;76.44;100739.67;107424;1260;141971;-73
2023/02/07 00:03:49;;;;;;;89.60;36.50;;;;;;;-8.66;76.63;100743.28;107141;1271;22632;-72
2023/02/07 00:06:23;;;;;;;98.30;36.80;;;;;;;-8.72;76.35;100744.58;107540;1277;22773;-72
2023/02/07 00:08:51;;;;;;;97.70;38.10;;;;;;;-8.79;76.34;100738.90;107153;1278;139552;-72
2023/02/07 00:11:20;;;;;;;87.10;35.80;;;;;;;-8.89;76.31;100739.30;106854;1277;25716;-72
2023/02/07 00:13:50;;;;;;;90.10;36.00;;;;;;;-8.92;76.83;100737.00;107579;1275;139160;-72
2023/02/07 00:16:18;;;;;;;89.20;34.90;;;;;;;-8.94;76.66;100739.36;106684;1280;22563;-72
2023/02/07 00:18:46;;;;;;;82.50;35.70;;;;;;;-8.89;76.95;100741.09;106413;1277;138257;-72
2023/02/07 00:21:16;;;;;;;77.20;34.10;;;;;;;-8.87;77.14;100737.45;107344;1278;22729;-72
2023/02/07 00:23:44;;;;;;;96.60;35.90;;;;;;;-8.77;77.37;100726.34;106397;1285;139549;-72
2023/02/07 00:26:13;;;;;;;91.30;35.60;;;;;;;-8.70;76.92;100735.68;106485;1286;22648;-72
2023/02/07 00:28:41;;;;;;;86.80;35.30;;;;;;;-8.68;76.75;100706.94;106317;1285;24377;-72
2023/02/07 00:31:13;;;;;;;80.50;34.40;;;;;;;-8.64;77.70;100712.52;106243;1282;138779;-72
2023/02/07 00:33:42;;;;;;;82.30;35.70;;;;;;;-8.64;76.49;100712.00;106310;1284;23295;-72
2023/02/07 00:36:14;;;;;;;79.90;34.00;;;;;;;-8.71;75.52;100711.27;106478;1278;138642;-72
2023/02/07 00:38:42;;;;;;;76.20;32.00;;;;;;;-8.77;76.12;100713.80;106187;1282;24462;-71
2023/02/07 00:41:16;;;;;;;84.30;32.10;;;;;;;-8.74;76.61;100711.93;106373;1284;22995;-71
2023/02/07 00:43:45;;;;;;;90.00;33.70;;;;;;;-8.70;76.82;100713.35;106231;1267;138500;-71
2023/02/07 00:46:13;;;;;;;74.90;31.90;;;;;;;-8.76;76.02;100722.39;106655;1280;25234;-72
2023/02/07 00:48:40;;;;;;;81.80;33.40;;;;;;;-8.79;76.42;100722.87;106194;1281;139358;-72
2023/02/07 00:51:10;;;;;;;88.10;33.00;;;;;;;-8.85;76.02;100711.15;107084;1285;25404;-72
2023/02/07 00:53:38;;;;;;;83.80;32.80;;;;;;;-8.95;76.17;100698.70;106366;1270;138844;-72
2023/02/07 00:56:06;;;;;;;72.70;30.60;;;;;;;-9.06;75.44;100694.08;106399;1285;22605;-72
2023/02/07 00:58:34;;;;;;;74.10;29.80;;;;;;;-9.22;75.84;100696.16;106645;1283;22627;-72
2023/02/07 01:01:02;;;;;;;81.30;30.70;;;;;;;-9.35;75.94;100691.60;106363;1284;139055;-71
2023/02/07 01:03:28;;;;;;;69.30;28.40;;;;;;;-9.35;76.77;100678.91;106197;1267;22547;-71
2023/02/07 01:05:56;;;;;;;71.60;28.60;;;;;;;-9.27;77.04;100680.55;106273;1283;139433;-72
2023/02/07 01:08:25;;;;;;;72.30;29.40;;;;;;;-9.21;76.47;100688.38;106459;1282;25259;-72
2023/02/07 01:10:52;;;;;;;74.50;30.90;;;;;;;-9.22;76.61;100689.48;106540;1283;25541;-71
2023/02/07 01:13:19;;;;;;;63.50;27.50;;;;;;;-9.21;76.83;100689.43;106273;1267;138997;-72
2023/02/07 01:15:48;;;;;;;68.60;29.00;;;;;;;-9.14;76.88;100682.13;106423;1283;25288;-71
2023/02/07 01:18:16;;;;;;;73.20;28.70;;;;;;;-9.09;77.01;100684.38;106527;1275;139618;-71
2023/02/07 01:20:43;;;;;;;74.60;29.30;;;;;;;-9.05;76.63;100685.95;106486;1282;22533;-71
2023/02/07 01:23:12;;;;;;;67.50;27.70;;;;;;;-9.06;76.75;100684.95;106139;1263;471271;-72
2023/02/07 01:25:40;;;;;;;59.60;26.20;;;;;;;-9.13;76.43;100686.46;106209;1283;139214;-71
2023/02/07 01:28:07;;;;;;;71.20;27.90;;;;;;;-9.18;76.34;100684.54;107172;1278;24070;-71
2023/02/07 01:30:37;;;;;;;62.20;25.70;;;;;;;-9.26;75.72;100678.95;106380;1281;139389;-71
2023/02/07 01:33:04;;;;;;;73.30;27.00;;;;;;;-9.44;76.07;100689.16;106445;1281;22718;-72
2023/02/07 01:35:32;;;;;;;69.50;27.00;;;;;;;-9.60;76.38;100693.85;106222;1281;139315;-76
2023/02/07 01:38:01;;;;;;;60.20;24.50;;;;;;;-9.73;76.85;100676.95;106325;1284;22536;-71
2023/02/07 01:40:30;;;;;;;71.20;26.20;;;;;;;-9.79;77.15;100682.99;106430;1280;24271;-71
2023/02/07 01:42:58;;;;;;;70.60;24.30;;;;;;;-9.82;77.33;100673.11;106486;1282;138221;-71
2023/02/07 01:45:38;;;;;;;64.90;23.40;;;;;;;-9.89;77.27;100670.92;106218;1275;24956;-71
2023/02/07 01:48:22;;;;;;;59.40;24.30;;;;;;;-9.95;77.41;100668.87;106241;1280;138463;-71
2023/02/07 01:50:54;;;;;;;51.90;21.70;;;;;;;-9.95;77.85;100667.27;106602;1268;24253;-71
2023/02/07 01:53:24;;;;;;;50.80;21.10;;;;;;;-9.88;77.97;100657.70;106559;1266;22550;-71
2023/02/07 01:55:55;;;;;;;55.80;21.40;;;;;;;-9.81;78.20;100656.88;106596;1263;139663;-71
2023/02/07 01:58:23;;;;;;;54.00;22.60;;;;;;;-9.72;78.32;100656.04;106606;1282;22541;-72
2023/02/07 02:00:50;;;;;;;54.00;21.10;;;;;;;-9.71;77.84;100653.18;106335;1282;138754;-71
2023/02/07 02:03:17;;;;;;;58.90;22.80;;;;;;;-9.74;77.49;100655.38;106427;1275;25367;-71
2023/02/07 02:05:46;;;;;;;53.20;21.40;;;;;;;-9.75;77.63;100663.32;106200;1281;138423;-72
2023/02/07 02:08:15;;;;;;;51.10;21.30;;;;;;;-9.77;77.71;100670.98;106387;1280;22645;-71
2023/02/07 02:11:24;;;;;;;52.40;21.00;;;;;;;-9.86;77.74;100672.92;106251;1284;22636;-71
2023/02/07 02:14:10;;;;;;;48.80;20.00;;;;;;;-9.90;78.40;100673.06;106437;1284;138793;-72
2023/02/07 02:16:46;;;;;;;46.00;19.50;;;;;;;-9.85;78.97;100674.78;106506;1267;25579;-71
2023/02/07 02:19:33;;;;;;;51.30;19.90;;;;;;;-9.84;79.74;100675.30;106501;1284;140155;-71
2023/02/07 02:22:50;;;;;;;49.80;19.40;;;;;;;-9.82;79.89;100673.29;106290;1283;24267;-72
2023/02/07 02:25:34;;;;;;;46.50;18.90;;;;;;;-9.81;80.25;100681.67;106376;1264;138397;-71
2023/02/07 02:28:10;;;;;;;49.60;18.90;;;;;;;-9.79;80.77;100685.27;106512;1283;22531;-71
2023/02/07 02:31:16;;;;;;;38.30;18.50;;;;;;;-9.77;80.46;100684.34;106389;1284;138251;-71
2023/02/07 02:33:53;;;;;;;44.50;17.90;;;;;;;-9.76;80.74;100679.19;105877;1290;22671;-71
2023/02/07 02:36:32;;;;;;;47.60;19.00;;;;;;;-9.72;80.76;100681.65;105743;1277;138886;-71
2023/02/07 02:39:20;;;;;;;47.40;19.20;;;;;;;-9.67;80.73;100680.05;105938;1290;25330;-71
2023/02/07 02:42:09;;;;;;;48.30;19.30;;;;;;;-9.65;80.73;100679.98;105868;1290;139360;-72
2023/02/07 02:44:49;;;;;;;48.40;19.00;;;;;;;-9.60;80.98;100673.64;105914;1268;25459;-71
2023/02/07 02:47:19;;;;;;;48.00;20.10;;;;;;;-9.55;81.00;100676.25;105848;1271;26789;-71
2023/02/07 02:49:46;;;;;;;;;;;;;;;-9.49;81.32;100676.00;105707;1292;139001;-71
2023/02/07 02:52:13;;;;;;;53.80;18.30;;;;;;;-9.43;81.01;100681.21;105986;1287;24664;-71
2023/02/07 02:54:41;;;;;;;46.00;17.60;;;;;;;-9.37;81.57;100680.77;105851;1292;139468;-71
2023/02/07 02:57:38;;;;;;;45.30;17.70;;;;;;;-9.24;81.74;100684.13;105964;1271;22778;-72
2023/02/07 03:00:14;;;;;;;44.70;16.80;;;;;;;-9.11;81.09;100680.77;105902;1290;139743;-71
2023/02/07 03:02:53;;;;;;;52.60;21.70;;;;;;;-9.04;80.26;100684.52;106031;1289;22787;-71
2023/02/07 03:05:31;;;;;;;65.30;26.10;;;;;;;-9.07;78.41;100683.08;106156;1262;23744;-72
2023/02/07 03:08:29;;;;;;;51.40;18.50;;;;;;;-9.24;77.00;100680.96;106339;1280;22624;-71
2023/02/07 03:11:35;;;;;;;51.70;20.50;;;;;;;-9.54;76.64;100682.70;106438;1284;22545;-71
2023/02/07 03:14:08;;;;;;;60.10;20.80;;;;;;;-9.69;77.84;100691.75;106242;1285;22538;-71
2023/02/07 03:16:54;;;;;;;52.20;21.90;;;;;;;-9.73;78.19;100692.07;106234;1286;24221;-71
2023/02/07 03:19:31;;;;;;;48.00;20.20;;;;;;;-9.79;78.19;100693.00;106209;1286;139420;-71
2023/02/07 03:22:09;;;;;;;56.80;21.60;;;;;;;-9.86;77.91;100688.21;106289;1287;23073;-71
2023/02/07 03:24:51;;;;;;;48.60;19.10;;;;;;;-9.94;77.36;100697.48;106256;1285;139476;-71
2023/02/07 03:27:22;;;;;;;49.10;18.20;;;;;;;-10.04;77.17;100698.73;106262;1268;25527;-71
2023/02/07 03:29:56;;;;;;;43.90;17.60;;;;;;;-10.14;76.97;100704.35;106215;1284;138999;-71
2023/02/07 03:32:29;;;;;;;47.10;17.70;;;;;;;-10.22;77.31;100704.85;106431;1262;22601;-72
2023/02/07 03:35:07;;;;;;;48.60;18.60;;;;;;;-10.24;77.86;100701.60;106320;1285;23959;-71
2023/02/07 03:37:42;;;;;;;44.60;18.00;;;;;;;-10.17;77.95;100698.86;106139;1268;138433;-71
2023/02/07 03:40:10;;;;;;;43.50;17.90;;;;;;;-10.07;78.30;100696.55;106254;1285;22652;-71
2023/02/07 03:42:52;;;;;;;46.70;19.10;;;;;;;-9.96;78.52;100692.95;106147;1272;139628;-71
2023/02/07 03:45:20;;;;;;;40.70;16.30;;;;;;;-9.85;78.41;100693.94;106471;1283;24338;-71
2023/02/07 03:47:48;;;;;;;40.20;17.40;;;;;;;-9.81;78.04;100695.02;106391;1265;138503;-71
2023/02/07 03:50:16;;;;;;;47.70;17.60;;;;;;;-9.73;78.43;100697.19;106536;1280;24298;-71
2023/02/07 03:52:43;;;;;;;45.50;19.10;;;;;;;-9.63;78.58;100699.40;106342;1283;24299;-71
2023/02/07 03:55:10;;;;;;;46.70;18.20;;;;;;;-9.53;78.52;100702.70;106441;1280;138319;-71
2023/02/07 03:57:37;;;;;;;53.20;19.80;;;;;;;-9.53;77.38;100698.84;106459;1276;24325;-71
2023/02/07 04:00:05;;;;;;;50.20;19.50;;;;;;;-9.55;77.41;100696.98;106424;1283;138380;-71
2023/02/07 04:02:39;;;;;;;48.60;18.90;;;;;;;-9.48;77.47;100697.44;106567;1282;22571;-71
2023/02/07 04:05:07;;;;;;;51.20;22.50;;;;;;;-9.43;77.49;100700.53;106529;1281;25454;-71
2023/02/07 04:07:34;;;;;;;60.00;22.20;;;;;;;-9.37;77.24;100693.77;106362;1265;138152;-71
2023/02/07 04:10:02;;;;;;;55.10;22.10;;;;;;;-9.35;76.86;100687.41;106455;1278;22609;-71
2023/02/07 04:12:31;;;;;;;59.10;23.90;;;;;;;-9.39;76.59;100691.27;106348;1283;139173;-71
2023/02/07 04:15:00;;;;;;;56.20;22.40;;;;;;;-9.44;76.49;100693.02;106786;1284;22716;-71
2023/02/07 04:17:27;;;;;;;62.20;25.10;;;;;;;-9.48;76.77;100690.56;106746;1265;22700;-71
2023/02/07 04:19:54;;;;;;;48.20;21.50;;;;;;;-9.54;76.74;100690.42;106467;1280;137880;-71
2023/02/07 04:22:21;;;;;;;52.40;20.00;;;;;;;-9.59;76.80;100691.54;106510;1282;24304;-71
2023/02/07 04:24:48;;;;;;;49.90;19.60;;;;;;;-9.66;76.71;100689.00;106450;1282;138355;-71
2023/02/07 04:27:15;;;;;;;50.70;21.10;;;;;;;-9.72;77.44;100694.49;106320;1262;22624;-71
2023/02/07 04:29:42;;;;;;;50.30;20.30;;;;;;;-9.77;77.62;100694.50;106251;1283;138636;-72
2023/02/07 04:32:09;;;;;;;50.80;21.80;;;;;;;-9.79;77.74;100701.97;106452;1283;22835;-72
2023/02/07 04:34:36;;;;;;;47.30;20.80;;;;;;;-9.78;78.11;100702.30;106395;1283;22578;-71
2023/02/07 04:37:03;;;;;;;56.30;21.80;;;;;;;-9.77;77.93;100702.62;106289;1260;138422;-72
2023/02/07 04:39:30;;;;;;;53.00;21.90;;;;;;;-9.73;78.24;100706.14;106423;1265;25559;-71
2023/02/07 04:41:57;;;;;;;50.60;20.70;;;;;;;-9.65;78.54;100701.62;106326;1281;139068;-72
2023/02/07 04:44:24;;;;;;;51.70;19.90;;;;;;;-9.60;78.10;100703.88;106385;1282;22544;-72
2023/02/07 04:46:51;;;;;;;54.50;21.50;;;;;;;-9.55;78.07;100705.23;106599;1279;22707;-71
2023/02/07 04:49:18;;;;;;;49.70;19.30;;;;;;;-9.56;77.66;100698.77;106347;1267;139659;-71
2023/02/07 04:51:45;;;;;;;57.20;21.60;;;;;;;-9.56;77.44;100700.19;106415;1283;25529;-71
2023/02/07 04:54:12;;;;;;;56.70;21.10;;;;;;;-9.58;77.12;100705.02;106255;1284;138374;-71
2023/02/07 04:56:39;;;;;;;47.30;21.20;;;;;;;-9.56;77.82;100699.81;106359;1283;22559;-71
2023/02/07 04:59:06;;;;;;;53.30;20.00;;;;;;;-9.51;77.75;100698.41;106380;1265;24720;-72
2023/02/07 05:01:33;;;;;;;51.40;20.70;;;;;;;-9.50;77.58;100706.98;106229;1278;138219;-72
2023/02/07 05:04:00;;;;;;;48.00;20.10;;;;;;;-9.47;77.58;100706.69;106254;1283;24284;-71
2023/02/07 05:06:27;;;;;;;53.20;19.20;;;;;;;-9.42;77.40;100704.37;106125;1285;139398;-72
2023/02/07 05:08:54;;;;;;;46.90;20.80;;;;;;;-9.37;77.74;100696.44;106416;1268;24301;-71
2023/02/07 05:11:21;;;;;;;49.30;21.60;;;;;;;-9.33;77.70;100698.04;106400;1281;22958;-71
2023/02/07 05:13:48;;;;;;;61.50;25.20;;;;;;;-9.29;77.67;100698.21;106234;1284;139132;-71
2023/02/07 05:16:15;;;;;;;58.20;26.20;;;;;;;-9.27;77.74;100700.09;106303;1284;23347;-71
2023/02/07 05:18:42;;;;;;;60.50;25.50;;;;;;;-9.26;77.30;100698.30;106305;1264;138161;-71
2023/02/07 05:21:10;;;;;;;59.90;26.30;;;;;;;-9.31;76.97;100698.15;106431;1284;25386;-71
2023/02/07 05:23:37;;;;;;;71.10;30.00;;;;;;;-9.38;76.92;100708.27;106281;1283;138201;-72
2023/02/07 05:26:04;;;;;;;75.90;30.50;;;;;;;-9.46;77.01;100718.08;106287;1283;23916;-71
2023/02/07 05:28:31;;;;;;;79.50;31.10;;;;;;;-9.57;76.89;100723.42;106488;1268;22589;-72
2023/02/07 05:30:58;;;;;;;73.50;32.50;;;;;;;-9.66;77.05;100727.16;106234;1282;137723;-71
2023/02/07 05:33:25;;;;;;;73.60;29.70;;;;;;;-9.75;77.60;100725.34;106354;1262;25537;-71
2023/02/07 05:35:52;;;;;;;78.90;31.30;;;;;;;-9.80;77.71;100724.33;106273;1281;138521;-71
2023/02/07 05:38:20;;;;;;;75.80;29.90;;;;;;;-9.80;77.94;100720.10;106374;1283;22545;-72
2023/02/07 05:40:48;;;;;;;73.20;30.20;;;;;;;-9.79;78.22;100724.10;106390;1275;22624;-71
2023/02/07 05:43:15;;;;;;;75.40;28.30;;;;;;;-9.74;78.66;100719.71;107335;1280;138354;-71
2023/02/07 05:45:44;;;;;;;71.10;28.70;;;;;;;-9.65;79.00;100717.09;106506;1282;22577;-71
2023/02/07 05:48:12;;;;;;;69.40;29.00;;;;;;;-9.60;78.50;100714.61;106409;1282;139772;-72
2023/02/07 05:50:39;;;;;;;68.70;28.20;;;;;;;-9.58;78.90;100715.40;106321;1269;25695;-71
2023/02/07 05:53:08;;;;;;;66.50;29.50;;;;;;;-9.52;78.91;100715.17;106386;1279;22543;-71
2023/02/07 05:55:35;;;;;;;70.00;28.40;;;;;;;-9.46;78.72;100715.07;106708;1283;138583;-71
2023/02/07 05:58:02;;;;;;;64.70;26.80;;;;;;;-9.38;79.07;100716.88;106360;1283;24298;-71
2023/02/07 06:00:29;;;;;;;77.30;29.60;;;;;;;-9.27;78.92;100711.88;106292;1265;139662;-72
2023/02/07 06:02:57;;;;;;;75.00;28.30;;;;;;;-9.21;78.63;100713.17;106528;1275;22635;-72
2023/02/07 06:05:24;;;;;;;71.60;27.80;;;;;;;-9.14;78.72;100713.09;106504;1262;22617;-72
2023/02/07 06:07:51;;;;;;;63.10;27.00;;;;;;;-9.07;78.89;100715.06;106257;1275;138002;-71
2023/02/07 06:10:18;;;;;;;60.70;27.40;;;;;;;-8.96;78.64;100717.79;107219;1265;23439;-72
2023/02/07 06:12:45;;;;;;;65.40;28.60;;;;;;;-8.84;78.50;100715.86;106218;1281;138414;-72
2023/02/07 06:15:13;;;;;;;61.40;27.90;;;;;;;-8.76;78.45;100716.25;106443;1272;22579;-71
2023/02/07 06:17:40;;;;;;;61.10;27.60;;;;;;;-8.68;78.65;100718.89;106305;1282;139039;-72
2023/02/07 06:20:08;;;;;;;66.60;28.20;;;;;;;-8.58;77.92;100722.34;106549;1264;22532;-72
2023/02/07 06:22:35;;;;;;;63.60;28.60;;;;;;;-8.51;78.71;100722.91;106404;1282;22548;-72
2023/02/07 06:25:02;;;;;;;72.20;28.50;;;;;;;-8.47;77.77;100721.67;106354;1279;138765;-71
2023/02/07 06:27:29;;;;;;;64.40;29.60;;;;;;;-8.39;77.48;100722.36;106420;1274;22625;-72
2023/02/07 06:29:56;;;;;;;67.00;28.10;;;;;;;-8.33;77.86;100724.70;106419;1278;139932;-72
2023/02/07 06:32:22;;;;;;;71.90;31.40;;;;;;;-8.26;77.99;100723.00;106370;1281;23383;-71
2023/02/07 06:34:49;;;;;;;67.90;30.30;;;;;;;-8.18;77.87;100724.73;106491;1282;25615;-72
2023/02/07 06:37:16;;;;;;;63.00;27.30;;;;;;;-8.09;77.97;100729.83;106701;1275;138329;-71
2023/02/07 06:39:43;;;;;;;68.70;31.50;;;;;;;-8.03;77.34;100731.63;106240;1260;22534;-72
2023/02/07 06:42:10;;;;;;;75.20;32.40;;;;;;;-8.01;77.76;100727.12;106540;1275;139899;-72
2023/02/07 06:44:37;;;;;;;73.60;32.90;;;;;;;-7.97;77.42;100721.70;106586;1269;22535;-72
2023/02/07 06:47:04;;;;;;;83.10;33.30;;;;;;;-7.98;77.68;100720.34;106341;1283;23001;-71
2023/02/07 06:49:31;;;;;;;78.90;32.50;;;;;;;-8.05;76.74;100721.52;106246;1283;140505;-71
2023/02/07 06:51:58;;;;;;;87.00;38.40;;;;;;;-8.13;76.57;100726.46;106706;1276;25075;-72
2023/02/07 06:54:25;;;;;;;85.60;34.50;;;;;;;-8.24;76.87;100724.99;108639;1276;138828;-73
2023/02/07 06:56:52;;;;;;;72.30;29.30;;;;;;;-8.30;77.01;100728.13;107948;1275;22582;-72
2023/02/07 06:59:19;;;;;;;85.40;34.30;;;;;;;-8.30;78.63;100729.34;106886;1279;22560;-72
2023/02/07 07:01:46;;;;;;;83.00;33.20;;;;;;;-8.29;78.84;100730.55;106346;1282;138743;-72
2023/02/07 07:04:13;;;;;;;69.20;32.30;;;;;;;-8.31;78.00;100732.54;106643;1275;22534;-72
2023/02/07 07:06:40;;;;;;;76.50;34.10;;;;;;;-8.31;77.90;100730.11;106269;1283;138256;-72
2023/02/07 07:09:07;;;;;;;81.50;35.90;;;;;;;-8.29;79.01;100730.17;106675;1283;23923;-71
2023/02/07 07:11:41;;;;;;;70.00;30.80;;;;;;;-8.08;80.07;100730.63;106843;1281;22545;-72
2023/02/07 07:14:12;;;;;;;77.90;32.30;;;;;;;-7.90;80.16;100726.30;106406;1283;25312;-72
2023/02/07 07:16:42;;;;;;;73.90;32.60;;;;;;;-7.59;79.64;100724.13;106464;1283;23755;-72
2023/02/07 07:19:12;;;;;;;72.20;33.00;;;;;;;-7.51;78.33;100719.02;106540;1270;138315;-72
2023/02/07 07:21:39;;;;;;;76.40;32.60;;;;;;;-7.47;78.02;100727.96;109130;1265;22559;-72
2023/02/07 07:24:06;;;;;;;80.50;34.30;;;;;;;-7.51;76.62;100729.73;106295;1281;139193;-72
2023/02/07 07:26:33;;;;;;;82.40;34.20;;;;;;;-7.58;77.09;100729.02;106427;1281;25328;-72
2023/02/07 07:29:01;;;;;;;70.80;33.90;;;;;;;-7.54;78.67;100731.66;106522;1284;25534;-72
2023/02/07 07:31:28;;;;;;;78.70;32.90;;;;;;;-7.33;78.74;100729.92;106388;1266;138552;-72
2023/02/07 07:33:55;;;;;;;75.60;33.20;;;;;;;-7.19;77.94;100732.45;106604;1283;22537;-72
2023/02/07 07:36:22;;;;;;;77.70;33.00;;;;;;;-7.14;77.25;100744.55;106783;1281;138205;-72
2023/02/07 07:38:48;;;;;;;76.90;31.70;;;;;;;-7.20;76.33;100746.95;106459;1270;22622;-72
2023/02/07 07:41:15;;;;;;;79.30;33.20;;;;;;;-7.28;76.33;100741.90;106430;1265;26632;-72
2023/02/07 07:43:42;;;;;;;77.50;34.10;;;;;;;-7.28;77.36;100747.15;106236;1284;138338;-72
2023/02/07 07:46:09;;;;;;;76.30;33.40;;;;;;;-7.23;77.12;100744.66;106340;1284;24338;-71
2023/02/07 07:48:36;;;;;;;74.50;32.80;;;;;;;-7.22;77.33;100742.80;106270;1283;138284;-72
2023/02/07 07:51:04;;;;;;;77.40;35.70;;;;;;;-7.17;77.90;100742.21;106482;1260;25459;-72
2023/02/07 07:53:30;;;;;;;86.40;37.90;;;;;;;-7.10;77.81;100741.88;106621;1272;22589;-72
2023/02/07 07:55:57;;;;;;;82.40;35.50;;;;;;;-7.00;78.65;100733.97;106385;1282;138154;-72
2023/02/07 07:58:26;;;;;;;89.40;37.20;;;;;;;-6.91;78.05;100732.66;106463;1275;22557;-72
2023/02/07 08:00:53;;;;;;;90.20;38.70;;;;;;;-6.87;78.17;100724.85;106444;1281;137785;-72
2023/02/07 08:03:21;;;;;;;89.00;40.00;;;;;;;-6.88;77.87;100721.89;106517;1274;23897;-72
2023/02/07 08:05:48;;;;;;;97.40;41.10;;;;;;;-6.89;78.11;100720.70;106332;1283;137825;-72
2023/02/07 08:08:16;;;;;;;95.40;39.50;;;;;;;-6.91;78.07;100716.91;106535;1284;22538;-72
2023/02/07 08:10:43;;;;;;;99.70;41.00;;;;;;;-6.91;78.45;100717.98;106374;1284;22621;-71
2023/02/07 08:13:10;;;;;;;94.60;39.20;;;;;;;-6.91;78.57;100716.59;106440;1266;137654;-72
2023/02/07 08:15:38;;;;;;;102.40;41.80;;;;;;;-6.91;78.76;100715.52;106532;1283;23459;-71
2023/02/07 08:18:05;;;;;;;92.50;40.90;;;;;;;-6.88;79.05;100721.00;106735;1279;139838;-72
2023/02/07 08:20:32;;;;;;;103.00;44.00;;;;;;;-6.85;78.90;100721.59;106552;1283;26522;-72
2023/02/07 08:22:59;;;;;;;99.00;43.60;;;;;;;-6.81;78.90;100715.74;106435;1267;22597;-72
2023/02/07 08:25:26;;;;;;;92.30;42.80;;;;;;;-6.76;79.03;100712.79;106372;1284;139045;-72
2023/02/07 08:27:54;;;;;;;116.40;53.70;;;;;;;-6.69;79.14;100717.94;106441;1281;22527;-71
2023/02/07 08:30:22;;;;;;;127.20;58.00;;;;;;;-6.61;79.07;100722.66;106471;1284;138750;-72
2023/02/07 08:32:50;;;;;;;125.00;57.70;;;;;;;-6.57;78.76;100719.96;106401;1265;25318;-72
2023/02/07 08:35:18;;;;;;;152.00;70.80;;;;;;;-6.52;78.85;100720.22;106784;1282;24283;-72
2023/02/07 08:37:45;;;;;;;119.90;56.50;;;;;;;-6.43;78.88;100716.05;106471;1283;138483;-72
2023/02/07 08:40:13;;;;;;;101.20;47.00;;;;;;;-6.31;79.07;100715.63;106523;1283;24210;-72
2023/02/07 08:42:40;;;;;;;100.10;46.90;;;;;;;-6.19;79.02;100711.26;106370;1281;138385;-71
2023/02/07 08:45:07;;;;;;;101.50;45.30;;;;;;;-6.07;79.17;100710.63;106845;1280;22600;-71
2023/02/07 08:47:34;;;;;;;97.90;47.50;;;;;;;-5.95;78.93;100706.21;106328;1284;25347;-72
2023/02/07 08:50:04;;;;;;;111.50;46.80;;;;;;;-5.83;78.81;100706.63;106540;1278;22559;-72
2023/02/07 08:52:31;;;;;;;116.60;51.70;;;;;;;-5.71;79.06;100706.47;106721;1266;22578;-71
2023/02/07 08:54:58;;;;;;;118.80;52.20;;;;;;;-5.60;78.74;100704.11;106194;1274;137655;-71
2023/02/07 08:57:26;;;;;;;127.60;55.20;;;;;;;-5.56;78.47;100698.55;106684;1283;22587;-72
2023/02/07 08:59:53;;;;;;;120.90;55.50;;;;;;;-5.54;78.39;100690.48;106447;1283;137957;-72
2023/02/07 09:02:20;;;;;;;126.80;54.40;;;;;;;-5.51;78.47;100684.67;106870;1260;22538;-73
2023/02/07 09:04:49;;;;;;;135.80;59.00;;;;;;;-5.45;78.64;100684.16;106526;1264;141118;-72
2023/02/07 09:07:16;;;;;;;115.60;53.50;;;;;;;-5.40;78.29;100684.96;106832;1276;138007;-72
2023/02/07 09:09:43;;;;;;;134.40;58.00;;;;;;;-5.40;78.23;100682.45;106546;1281;22563;-72
2023/02/07 09:12:10;;;;;;;134.30;57.50;;;;;;;-5.38;78.52;100678.95;106253;1282;22656;-72
2023/02/07 09:14:39;;;;;;;139.80;57.60;;;;;;;-5.35;78.51;100669.77;107053;1268;140032;-72
2023/02/07 09:17:07;;;;;;;133.70;57.10;;;;;;;-5.33;78.41;100670.20;106298;1270;25241;-72
2023/02/07 09:19:35;;;;;;;126.40;54.20;;;;;;;-5.29;78.83;100669.77;106600;1280;140011;-73
2023/02/07 09:22:03;;;;;;;132.90;58.50;;;;;;;-5.24;78.72;100671.45;106625;1278;22662;-73
2023/02/07 09:24:30;;;;;;;134.40;59.90;;;;;;;-5.21;78.18;100670.55;106508;1266;138478;-73
2023/02/07 09:26:57;;;;;;;132.60;60.10;;;;;;;-5.14;78.75;100668.23;106681;1279;22562;-73
2023/02/07 09:29:24;;;;;;;142.80;62.70;;;;;;;-5.07;78.89;100672.61;106711;1272;138522;-72
2023/02/07 09:31:51;;;;;;;139.90;61.30;;;;;;;-5.00;78.99;100670.59;106997;1279;22571;-72
2023/02/07 09:34:18;;;;;;;139.00;62.10;;;;;;;-4.96;78.38;100671.95;106476;1269;22550;-72
2023/02/07 09:36:45;;;;;;;148.90;62.40;;;;;;;-4.91;79.28;100675.92;106025;1284;138415;-72
2023/02/07 09:39:13;;;;;;;127.50;59.30;;;;;;;-4.80;79.20;100675.04;106235;1282;22563;-72
2023/02/07 09:42:21;;;;;;;146.70;61.60;;;;;;;-4.72;78.89;100667.90;106355;1281;139762;-71
2023/02/07 09:45:11;;;;;;;130.30;59.90;;;;;;;-4.53;80.83;100664.05;106108;1277;22743;-72
2023/02/07 09:47:41;;;;;;;128.30;59.70;;;;;;;-4.19;80.06;100661.80;106345;1284;22534;-71
2023/02/07 09:50:18;;;;;;;133.50;58.20;;;;;;;-3.90;79.15;100660.14;107073;1275;138703;-72
2023/02/07 09:53:03;;;;;;;132.70;59.20;;;;;;;-3.61;78.62;100652.75;106496;1282;24392;-71
2023/02/07 09:55:52;;;;;;;132.30;60.80;;;;;;;-3.32;77.80;100651.10;106864;1276;138237;-72
2023/02/07 09:58:28;;;;;;;148.10;62.80;;;;;;;-3.12;76.74;100656.14;106414;1276;22629;-72
2023/02/07 10:01:02;;;;;;;143.90;62.70;;;;;;;-3.12;75.83;100663.06;106436;1283;23211;-72
2023/02/07 10:03:32;;;;;;;146.90;64.10;;;;;;;-3.14;75.64;100653.28;106408;1281;25488;-72
2023/02/07 10:06:09;;;;;;;150.10;64.80;;;;;;;-3.17;75.60;100651.49;106376;1268;22976;-72
2023/02/07 10:08:36;;;;;;;144.90;62.60;;;;;;;-3.24;75.22;100654.99;106215;1283;139420;-72
2023/02/07 10:11:21;;;;;;;140.10;63.10;;;;;;;-3.34;75.26;100649.39;106214;1284;22665;-72
2023/02/07 10:14:27;;;;;;;142.40;65.20;;;;;;;-3.40;75.92;100647.11;106288;1259;138381;-72
2023/02/07 10:17:25;;;;;;;162.30;64.10;;;;;;;-3.41;75.89;100646.33;106831;1275;22548;-72
2023/02/07 10:20:17;;;;;;;147.80;64.90;;;;;;;-3.45;76.12;100656.32;106201;1281;139657;-72
2023/02/07 10:23:23;;;;;;;135.80;60.80;;;;;;;-3.46;76.25;100657.27;106337;1282;22661;-72
2023/02/07 10:25:53;;;;;;;142.30;61.80;;;;;;;-3.46;76.18;100658.56;106337;1273;138203;-72
2023/02/07 10:28:26;;;;;;;141.80;63.50;;;;;;;-3.45;76.29;100657.21;106313;1284;22547;-72
2023/02/07 10:30:59;;;;;;;141.60;60.50;;;;;;;-3.40;76.52;100653.73;106534;1275;22589;-73
2023/02/07 10:33:40;;;;;;;146.50;64.40;;;;;;;-3.35;76.68;100644.85;106370;1284;24303;-72
2023/02/07 10:36:13;;;;;;;142.00;62.00;;;;;;;-3.20;76.42;100641.22;106381;1274;23897;-72
2023/02/07 10:39:28;;;;;;;136.00;61.70;;;;;;;-3.11;75.91;100640.62;108553;1282;138363;-72
2023/02/07 10:41:56;;;;;;;148.80;64.70;;;;;;;-3.06;75.87;100647.57;106088;1289;27680;-72
2023/02/07 10:44:24;;;;;;;128.30;55.20;;;;;;;-3.07;75.65;100652.40;105765;1272;138382;-72
2023/02/07 10:46:59;;;;;;;140.00;60.70;;;;;;;-3.04;76.94;100655.40;105899;1289;24538;-71
2023/02/07 10:49:30;;;;;;;144.90;61.10;;;;;;;-2.82;77.02;100650.89;105826;1281;138751;-71
2023/02/07 10:52:02;;;;;;;128.90;58.60;;;;;;;-2.55;76.71;100652.98;106975;1284;22539;-71
2023/02/07 10:54:29;;;;;;;135.20;62.20;;;;;;;-2.28;76.21;100652.84;106302;1266;24361;-73
2023/02/07 10:57:00;;;;;;;129.80;60.80;;;;;;;-2.04;75.51;100650.49;106207;1280;137729;-72
2023/02/07 10:59:36;;;;;;;129.30;57.50;;;;;;;-1.89;75.00;100650.30;107257;1285;22274;-72
2023/02/07 11:02:32;;;;;;;117.10;54.20;;;;;;;-1.77;74.64;100653.32;106867;1290;139110;-72
2023/02/07 11:05:04;;;;;;;111.20;50.60;;;;;;;-1.65;74.30;100648.39;106674;1267;22780;-72
2023/02/07 11:07:32;;;;;;;116.50;52.50;;;;;;;-1.53;74.26;100646.26;106378;1286;137911;-72
2023/02/07 11:10:20;;;;;;;113.10;52.70;;;;;;;-1.42;73.56;100630.09;106269;1288;22560;-72
2023/02/07 11:12:53;;;;;;;103.00;47.10;;;;;;;-1.23;73.42;100628.36;106102;1285;22686;-71
2023/02/07 11:15:25;;;;;;;116.00;49.90;;;;;;;-1.00;73.07;100625.35;106692;1269;138140;-72